createdAt,value
2022-12-05T00:01:18.318Z,19.67
2022-12-05T00:03:46.165Z,19.27
2022-12-05T00:06:12.858Z,19.27
2022-12-05T00:08:39.485Z,20.65
2022-12-05T00:11:12.523Z,20.55
2022-12-05T00:13:40.842Z,20.48
2022-12-05T00:16:09.787Z,18.48
2022-12-05T00:18:37.050Z,17.48
2022-12-05T00:21:04.438Z,17.30
2022-12-05T00:23:31.121Z,17.67
2022-12-05T00:25:57.703Z,16.23
2022-12-05T00:28:24.278Z,15.23
2022-12-05T00:30:50.837Z,16.02
2022-12-05T00:33:17.381Z,15.60
2022-12-05T00:35:46.200Z,15.30
2022-12-05T00:38:12.739Z,14.95
2022-12-05T00:40:41.591Z,15.52
2022-12-05T00:43:08.207Z,16.00
2022-12-05T00:45:34.785Z,15.68
2022-12-05T00:48:01.378Z,17.15
2022-12-05T00:50:27.905Z,16.80
2022-12-05T00:52:54.452Z,20.45
2022-12-05T00:55:20.961Z,18.90
2022-12-05T00:57:47.517Z,16.13
2022-12-05T01:00:14.504Z,16.17
2022-12-05T01:02:41.084Z,16.20
2022-12-05T01:05:10.440Z,16.90
2022-12-05T01:07:36.999Z,16.70
2022-12-05T01:10:04.062Z,15.20
2022-12-05T01:12:31.038Z,15.23
2022-12-05T01:14:57.574Z,14.63
2022-12-05T01:17:24.184Z,14.27
2022-12-05T01:19:50.719Z,16.17
2022-12-05T01:22:17.274Z,15.23
2022-12-05T01:24:46.180Z,16.23
2022-12-05T01:27:12.746Z,15.95
2022-12-05T01:29:39.275Z,17.35
2022-12-05T01:32:06.267Z,16.58
2022-12-05T01:34:32.898Z,16.33
2022-12-05T01:36:59.484Z,17.98
2022-12-05T01:39:26.050Z,18.33
2022-12-05T01:41:54.822Z,17.90
2022-12-05T01:44:24.395Z,16.27
2022-12-05T01:46:52.851Z,15.38
2022-12-05T01:49:31.311Z,16.15
2022-12-05T01:52:23.696Z,14.43
2022-12-05T01:54:54.606Z,14.32
2022-12-05T01:57:22.807Z,14.18
2022-12-05T01:59:53.318Z,13.68
2022-12-05T02:02:20.238Z,14.05
2022-12-05T02:05:33.053Z,14.52
2022-12-05T02:08:02.885Z,12.80
2022-12-05T02:10:36.866Z,13.18
2022-12-05T02:13:48.605Z,13.45
2022-12-05T02:16:33.892Z,13.45
2022-12-05T02:19:25.108Z,13.18
2022-12-05T02:22:22.257Z,12.93
2022-12-05T02:25:12.113Z,13.48
2022-12-05T02:28:08.403Z,14.15
2022-12-05T02:30:47.339Z,13.43
2022-12-05T02:33:29.386Z,13.52
2022-12-05T02:36:24.186Z,13.90
2022-12-05T02:39:06.218Z,14.70
2022-12-05T02:41:40.303Z,13.70
2022-12-05T02:44:15.818Z,14.00
2022-12-05T02:46:46.341Z,14.43
2022-12-05T02:49:20.028Z,18.17
2022-12-05T02:54:18.650Z,19.77
2022-12-05T02:56:47.294Z,20.58
2022-12-05T02:59:22.813Z,20.38
2022-12-05T03:01:50.847Z,20.95
2022-12-05T03:04:21.328Z,21.35
2022-12-05T03:07:10.365Z,21.90
2022-12-05T03:09:39.673Z,21.98
2022-12-05T03:12:15.302Z,20.88
2022-12-05T03:15:03.787Z,23.45
2022-12-05T03:17:35.836Z,23.10
2022-12-05T03:20:12.003Z,20.38
2022-12-05T03:22:57.938Z,20.63
2022-12-05T03:25:30.093Z,18.05
2022-12-05T03:28:15.165Z,16.90
2022-12-05T03:30:42.724Z,17.15
2022-12-05T03:33:15.281Z,15.73
2022-12-05T03:35:44.853Z,16.23
2022-12-05T03:38:16.113Z,17.80
2022-12-05T03:41:05.898Z,19.90
2022-12-05T03:44:03.610Z,20.10
2022-12-05T03:46:37.793Z,20.23
2022-12-05T03:49:18.382Z,19.77
2022-12-05T03:51:57.622Z,18.05
2022-12-05T03:54:34.008Z,17.02
2022-12-05T03:57:11.566Z,16.02
2022-12-05T03:59:44.819Z,15.32
2022-12-05T04:02:17.080Z,15.00
2022-12-05T04:05:10.166Z,15.40
2022-12-05T04:07:40.084Z,15.35
2022-12-05T04:10:14.769Z,15.68
2022-12-05T04:12:44.969Z,15.32
2022-12-05T04:15:17.280Z,16.45
2022-12-05T04:17:56.331Z,15.68
2022-12-05T04:20:55.576Z,14.82
2022-12-05T04:23:22.683Z,15.05
2022-12-05T04:26:21.278Z,14.93
2022-12-05T04:28:47.689Z,15.18
2022-12-05T04:31:27.568Z,14.90
2022-12-05T04:34:01.285Z,14.95
2022-12-05T04:39:16.134Z,13.43
2022-12-05T04:41:53.771Z,13.95
2022-12-05T04:44:27.548Z,14.73
2022-12-05T04:47:01.007Z,16.05
2022-12-05T04:49:30.904Z,14.48
2022-12-05T04:52:07.573Z,14.25
2022-12-05T04:54:48.926Z,14.10
2022-12-05T04:57:22.267Z,14.20
2022-12-05T04:59:49.056Z,13.35
2022-12-05T05:02:21.632Z,13.57
2022-12-05T05:04:51.100Z,14.65
2022-12-05T05:07:18.653Z,14.32
2022-12-05T05:09:47.925Z,14.70
2022-12-05T05:12:18.785Z,13.55
2022-12-05T05:14:45.746Z,15.48
2022-12-05T05:17:12.179Z,14.65
2022-12-05T05:19:38.721Z,14.43
2022-12-05T05:22:07.514Z,14.25
2022-12-05T05:24:33.991Z,14.07
2022-12-05T05:27:00.419Z,15.27
2022-12-05T05:29:26.964Z,14.27
2022-12-05T05:31:55.925Z,13.57
2022-12-05T05:34:22.483Z,13.85
2022-12-05T05:36:52.836Z,14.05
2022-12-05T05:39:19.269Z,14.35
2022-12-05T05:41:45.786Z,14.93
2022-12-05T05:44:12.297Z,16.42
2022-12-05T05:46:38.986Z,14.57
2022-12-05T05:49:08.209Z,16.00
2022-12-05T05:51:37.054Z,14.77
2022-12-05T05:54:03.648Z,14.82
2022-12-05T05:56:30.252Z,15.75
2022-12-05T05:58:59.846Z,15.25
2022-12-05T06:01:27.175Z,15.32
2022-12-05T06:03:53.989Z,15.13
2022-12-05T06:06:23.845Z,16.15
2022-12-05T06:08:50.389Z,14.77
2022-12-05T06:11:25.474Z,13.73
2022-12-05T06:13:54.790Z,14.88
2022-12-05T06:16:21.539Z,14.07
2022-12-05T06:18:49.226Z,13.35
2022-12-05T06:21:16.555Z,14.48
2022-12-05T06:23:43.484Z,13.38
2022-12-05T06:26:18.632Z,13.57
2022-12-05T06:28:45.809Z,13.32
2022-12-05T06:31:18.369Z,13.55
2022-12-05T06:33:45.691Z,12.80
2022-12-05T06:36:17.262Z,12.38
2022-12-05T06:38:44.560Z,13.55
2022-12-05T06:41:18.644Z,13.07
2022-12-05T06:43:47.402Z,12.88
2022-12-05T06:46:14.569Z,12.57
2022-12-05T06:48:41.100Z,12.15
2022-12-05T06:51:14.105Z,12.63
2022-12-05T06:53:41.322Z,12.25
2022-12-05T06:56:14.283Z,13.05
2022-12-05T06:58:42.334Z,12.52
2022-12-05T07:01:36.208Z,12.70
2022-12-05T07:04:03.513Z,12.07
2022-12-05T07:06:30.089Z,11.90
2022-12-05T07:08:58.965Z,11.85
2022-12-05T07:11:25.830Z,12.35
2022-12-05T07:13:55.100Z,12.10
2022-12-05T07:16:21.621Z,11.85
2022-12-05T07:18:48.097Z,12.63
2022-12-05T07:21:15.637Z,13.40
2022-12-05T07:23:44.636Z,12.68
2022-12-05T07:26:13.604Z,13.32
2022-12-05T07:28:40.114Z,13.73
2022-12-05T07:31:09.460Z,13.93
2022-12-05T07:33:37.088Z,12.90
2022-12-05T07:36:07.103Z,12.73
2022-12-05T07:38:33.760Z,14.02
2022-12-05T07:41:06.732Z,13.35
2022-12-05T07:43:35.708Z,13.63
2022-12-05T07:46:06.673Z,12.90
2022-12-05T07:48:33.438Z,13.55
2022-12-05T07:51:05.612Z,13.88
2022-12-05T07:53:33.008Z,14.48
2022-12-05T07:56:00.786Z,13.75
2022-12-05T07:58:31.842Z,13.68
2022-12-05T08:01:09.173Z,14.07
2022-12-05T08:03:38.864Z,14.25
2022-12-05T08:06:07.962Z,14.60
2022-12-05T08:08:34.452Z,13.70
2022-12-05T08:11:11.402Z,15.30
2022-12-05T08:13:40.899Z,14.35
2022-12-05T08:16:10.865Z,14.02
2022-12-05T08:18:37.765Z,14.13
2022-12-05T08:21:10.571Z,15.00
2022-12-05T08:23:38.277Z,15.43
2022-12-05T08:26:07.914Z,15.00
2022-12-05T08:28:34.811Z,15.13
2022-12-05T08:31:16.823Z,14.43
2022-12-05T08:33:44.396Z,15.05
2022-12-05T08:36:15.504Z,24.70
2022-12-05T08:38:43.158Z,49.60
2022-12-05T08:41:12.542Z,21.38
2022-12-05T08:43:39.068Z,21.00
2022-12-05T08:46:05.902Z,16.00
2022-12-05T08:48:33.925Z,32.80
2022-12-05T08:51:08.779Z,18.40
2022-12-05T08:53:40.927Z,15.55
2022-12-05T08:56:13.565Z,16.60
2022-12-05T08:58:40.536Z,17.17
2022-12-05T09:01:11.002Z,14.95
2022-12-05T09:03:37.811Z,15.35
2022-12-05T09:06:07.556Z,15.38
2022-12-05T09:08:36.546Z,14.30
2022-12-05T09:11:30.138Z,15.50
2022-12-05T09:13:58.272Z,16.80
2022-12-05T09:16:38.529Z,15.85
2022-12-05T09:19:10.635Z,16.75
2022-12-05T09:21:37.080Z,15.45
2022-12-05T09:24:03.665Z,15.13
2022-12-05T09:26:30.448Z,16.88
2022-12-05T09:28:57.050Z,17.17
2022-12-05T09:31:25.474Z,17.48
2022-12-05T09:33:52.793Z,15.13
2022-12-05T09:36:24.603Z,14.10
2022-12-05T09:38:51.799Z,15.38
2022-12-05T09:41:58.866Z,16.02
2022-12-05T09:45:03.712Z,15.55
2022-12-05T09:47:59.492Z,15.10
2022-12-05T09:50:30.150Z,15.43
2022-12-05T09:53:06.875Z,15.30
2022-12-05T09:55:43.644Z,15.35
2022-12-05T09:58:38.423Z,16.52
2022-12-05T10:01:20.090Z,15.75
2022-12-05T10:04:02.035Z,15.90
2022-12-05T10:07:00.601Z,16.35
2022-12-05T10:10:04.862Z,14.57
2022-12-05T10:12:53.711Z,21.23
2022-12-05T10:15:38.332Z,21.08
2022-12-05T10:18:41.818Z,17.13
2022-12-05T10:21:08.254Z,16.15
2022-12-05T10:23:58.054Z,15.93
2022-12-05T10:26:38.334Z,15.70
2022-12-05T10:29:30.979Z,16.23
2022-12-05T10:32:18.563Z,16.65
2022-12-05T10:34:45.845Z,15.02
2022-12-05T10:37:18.196Z,16.15
2022-12-05T10:39:46.091Z,15.38
2022-12-05T10:42:25.754Z,15.82
2022-12-05T10:45:04.941Z,16.42
2022-12-05T10:47:35.266Z,16.27
2022-12-05T10:50:17.221Z,16.80
2022-12-05T10:52:44.542Z,15.07
2022-12-05T10:55:16.096Z,18.15
2022-12-05T10:57:52.749Z,17.13
2022-12-05T11:00:28.284Z,16.02
2022-12-05T11:02:55.797Z,16.98
2022-12-05T11:05:31.387Z,18.58
2022-12-05T11:08:01.356Z,19.73
2022-12-05T11:10:38.853Z,17.40
2022-12-05T11:13:16.369Z,16.38
2022-12-05T11:15:55.185Z,16.83
2022-12-05T11:18:25.026Z,16.73
2022-12-05T11:20:52.160Z,16.10
2022-12-05T11:23:30.586Z,17.27
2022-12-05T11:26:00.118Z,17.63
2022-12-05T11:28:33.243Z,70.28
2022-12-05T11:31:22.422Z,19.02
2022-12-05T11:34:04.007Z,16.23
2022-12-05T11:36:40.068Z,18.40
2022-12-05T11:39:07.077Z,19.00
2022-12-05T11:41:52.180Z,17.48
2022-12-05T11:44:45.433Z,17.65
2022-12-05T11:47:21.033Z,17.08
2022-12-05T11:50:02.856Z,18.80
2022-12-05T11:53:07.865Z,18.63
2022-12-05T11:56:02.201Z,17.73
2022-12-05T12:01:07.071Z,17.48
2022-12-05T12:04:00.755Z,18.33
2022-12-05T12:06:40.356Z,17.23
2022-12-05T12:09:25.144Z,17.73
2022-12-05T12:12:06.300Z,18.25
2022-12-05T12:15:08.720Z,17.83
2022-12-05T12:17:54.484Z,17.48
2022-12-05T12:20:42.644Z,17.40
2022-12-05T12:23:38.836Z,17.92
2022-12-05T12:26:33.257Z,17.40
2022-12-05T12:29:08.878Z,19.08
2022-12-05T12:31:55.516Z,17.23
2022-12-05T12:34:29.544Z,17.23
2022-12-05T12:37:09.661Z,18.42
2022-12-05T12:39:51.098Z,18.17
2022-12-05T12:42:29.491Z,19.02
2022-12-05T12:45:17.489Z,19.90
2022-12-05T12:48:08.865Z,20.70
2022-12-05T12:50:43.632Z,17.90
2022-12-05T12:53:48.480Z,19.40
2022-12-05T12:56:28.862Z,17.65
2022-12-05T12:59:20.603Z,18.48
2022-12-05T13:01:55.301Z,18.30
2022-12-05T13:05:09.503Z,16.42
2022-12-05T13:07:46.028Z,16.85
2022-12-05T13:10:23.869Z,16.23
2022-12-05T13:12:55.225Z,17.40
2022-12-05T13:15:40.855Z,21.35
2022-12-05T13:18:14.843Z,20.55
2022-12-05T13:20:41.927Z,31.85
2022-12-05T13:23:14.861Z,23.27
2022-12-05T13:25:46.068Z,21.50
2022-12-05T13:28:27.560Z,34.28
2022-12-05T13:30:57.865Z,31.42
2022-12-05T13:33:36.697Z,32.20
2022-12-05T13:36:28.171Z,23.55
2022-12-05T13:39:41.463Z,22.63
2022-12-05T13:42:24.279Z,24.00
2022-12-05T13:44:56.065Z,27.48
2022-12-05T13:47:47.837Z,19.83
2022-12-05T13:50:19.745Z,24.15
2022-12-05T13:52:51.995Z,19.15
2022-12-05T13:55:21.357Z,22.77
2022-12-05T13:57:51.020Z,20.30
2022-12-05T14:00:17.453Z,17.73
2022-12-05T14:02:45.308Z,19.83
2022-12-05T14:05:14.692Z,19.20
2022-12-05T14:07:43.195Z,22.67
2022-12-05T14:10:18.621Z,19.45
2022-12-05T14:12:54.321Z,20.30
2022-12-05T14:15:39.451Z,23.45
2022-12-05T14:18:49.184Z,24.88
2022-12-05T14:21:35.931Z,18.92
2022-12-05T14:24:27.507Z,17.60
2022-12-05T14:27:41.250Z,16.92
2022-12-05T14:30:45.603Z,18.52
2022-12-05T14:33:25.452Z,17.55
2022-12-05T14:35:53.314Z,18.63
2022-12-05T14:38:28.891Z,18.48
2022-12-05T14:41:06.208Z,19.27
2022-12-05T14:43:34.576Z,18.33
2022-12-05T14:46:04.338Z,18.33
2022-12-05T14:48:35.673Z,18.95
2022-12-05T14:51:22.639Z,19.10
2022-12-05T14:53:50.479Z,26.45
2022-12-05T14:56:23.280Z,23.75
2022-12-05T14:59:05.431Z,24.80
2022-12-05T15:01:40.688Z,28.75
2022-12-05T15:04:19.395Z,20.40
2022-12-05T15:06:50.830Z,19.58
2022-12-05T15:09:40.095Z,19.98
2022-12-05T15:12:13.394Z,24.08
2022-12-05T15:15:04.316Z,20.70
2022-12-05T15:17:43.329Z,20.75
2022-12-05T15:20:27.644Z,19.80
2022-12-05T15:22:56.857Z,20.17
2022-12-05T15:25:30.224Z,20.23
2022-12-05T15:28:05.845Z,20.52
2022-12-05T15:30:42.359Z,18.67
2022-12-05T15:33:12.903Z,19.25
2022-12-05T15:35:41.122Z,18.55
2022-12-05T15:38:26.810Z,18.83
2022-12-05T15:40:58.746Z,20.35
2022-12-05T15:43:33.703Z,41.80
2022-12-05T15:46:08.111Z,37.95
2022-12-05T15:48:39.412Z,29.20
2022-12-05T15:51:06.012Z,28.35
2022-12-05T15:53:56.107Z,22.05
2022-12-05T15:56:38.590Z,22.17
2022-12-05T15:59:17.312Z,20.30
2022-12-05T16:01:51.537Z,18.25
2022-12-05T16:04:30.943Z,19.58
2022-12-05T16:07:01.075Z,29.85
2022-12-05T16:09:32.723Z,26.75
2022-12-05T16:12:05.680Z,26.65
2022-12-05T16:14:59.083Z,48.67
2022-12-05T16:17:24.271Z,19.25
2022-12-05T16:19:50.787Z,32.53
2022-12-05T16:22:22.731Z,51.40
2022-12-05T16:25:05.576Z,28.30
2022-12-05T16:27:35.721Z,32.80
2022-12-05T16:30:22.743Z,31.23
2022-12-05T16:32:58.096Z,25.23
2022-12-05T16:35:39.809Z,19.92
2022-12-05T16:38:31.720Z,18.48
2022-12-05T16:41:04.042Z,20.13
2022-12-05T16:43:30.544Z,17.55
2022-12-05T16:46:10.619Z,18.17
2022-12-05T16:48:37.691Z,23.52
2022-12-05T16:51:13.309Z,23.08
2022-12-05T16:53:49.036Z,20.80
2022-12-05T16:56:19.954Z,20.45
2022-12-05T16:58:46.786Z,21.52
2022-12-05T17:01:20.306Z,23.10
2022-12-05T17:03:49.516Z,23.75
2022-12-05T17:06:18.318Z,29.50
2022-12-05T17:08:44.878Z,24.88
2022-12-05T17:11:21.780Z,21.75
2022-12-05T17:13:49.246Z,22.17
2022-12-05T17:16:18.166Z,21.48
2022-12-05T17:18:49.928Z,21.77
2022-12-05T17:21:29.421Z,19.25
2022-12-05T17:23:55.878Z,20.30
2022-12-05T17:26:23.177Z,20.02
2022-12-05T17:28:50.331Z,20.15
2022-12-05T17:31:21.996Z,18.00
2022-12-05T17:33:50.607Z,18.98
2022-12-05T17:36:17.505Z,19.77
2022-12-05T17:38:46.796Z,21.05
2022-12-05T17:41:21.981Z,21.15
2022-12-05T17:43:48.868Z,22.63
2022-12-05T17:46:18.923Z,22.17
2022-12-05T17:48:46.908Z,19.55
2022-12-05T17:51:14.601Z,20.48
2022-12-05T17:53:42.325Z,21.30
2022-12-05T17:56:09.154Z,21.50
2022-12-05T17:58:35.733Z,21.40
2022-12-05T18:01:02.632Z,31.63
2022-12-05T18:03:29.560Z,25.75
2022-12-05T18:05:56.146Z,19.00
2022-12-05T18:08:24.048Z,16.85
2022-12-05T18:10:51.051Z,15.52
2022-12-05T18:13:20.622Z,17.08
2022-12-05T18:15:49.013Z,15.75
2022-12-05T18:18:17.697Z,12.93
2022-12-05T18:20:44.739Z,12.23
2022-12-05T18:23:11.852Z,11.70
2022-12-05T18:25:39.300Z,11.20
2022-12-05T18:28:05.813Z,13.43
2022-12-05T18:30:32.347Z,11.30
2022-12-05T18:32:58.804Z,11.27
2022-12-05T18:35:40.639Z,9.40
2022-12-05T18:38:09.638Z,8.88
2022-12-05T18:40:36.398Z,8.57
2022-12-05T18:43:03.356Z,6.47
2022-12-05T18:45:29.946Z,6.65
2022-12-05T18:48:04.558Z,5.53
2022-12-05T18:50:42.896Z,6.15
2022-12-05T18:53:09.421Z,5.32
2022-12-05T18:55:58.259Z,4.70
2022-12-05T18:58:22.384Z,4.13
2022-12-05T19:00:48.923Z,4.35
2022-12-05T19:03:15.464Z,4.38
2022-12-05T19:05:43.298Z,4.97
2022-12-05T19:08:09.928Z,5.93
2022-12-05T19:10:36.491Z,7.82
2022-12-05T19:13:03.003Z,6.60
2022-12-05T19:15:29.516Z,6.70
2022-12-05T19:17:58.512Z,6.10
2022-12-05T19:20:24.982Z,5.30
2022-12-05T19:22:59.191Z,7.88
2022-12-05T19:25:29.259Z,7.22
2022-12-05T19:27:55.839Z,6.10
2022-12-05T19:30:22.443Z,6.00
2022-12-05T19:32:51.260Z,5.95
2022-12-05T19:35:17.820Z,5.95
2022-12-05T19:37:44.349Z,4.97
2022-12-05T19:40:11.217Z,5.85
2022-12-05T19:42:40.181Z,7.57
2022-12-05T19:45:13.484Z,5.53
2022-12-05T19:47:42.931Z,5.72
2022-12-05T19:50:09.763Z,6.07
2022-12-05T19:52:36.324Z,5.85
2022-12-05T19:55:02.937Z,6.45
2022-12-05T19:57:31.962Z,6.75
2022-12-05T19:59:58.847Z,7.15
2022-12-05T20:02:28.403Z,7.40
2022-12-05T20:04:54.977Z,7.05
2022-12-05T20:07:21.560Z,6.28
2022-12-05T20:09:50.412Z,6.70
2022-12-05T20:12:19.326Z,6.70
2022-12-05T20:14:45.945Z,6.72
2022-12-05T20:17:12.502Z,6.30
2022-12-05T20:19:41.352Z,6.72
2022-12-05T20:22:10.299Z,7.13
2022-12-05T20:24:36.888Z,8.85
2022-12-05T20:27:07.296Z,8.43
2022-12-05T20:29:33.948Z,7.25
2022-12-05T20:32:00.541Z,5.95
2022-12-05T20:34:29.368Z,6.93
2022-12-05T20:36:55.970Z,6.25
2022-12-05T20:39:24.672Z,6.07
2022-12-05T20:41:51.514Z,5.97
2022-12-05T20:44:20.420Z,6.10
2022-12-05T20:46:49.884Z,6.28
2022-12-05T20:49:16.529Z,6.40
2022-12-05T20:51:45.422Z,6.15
2022-12-05T20:54:14.027Z,6.32
2022-12-05T20:56:41.105Z,6.35
2022-12-05T20:59:12.480Z,6.30
2022-12-05T21:01:39.271Z,7.53
2022-12-05T21:04:07.793Z,7.82
2022-12-05T21:06:43.702Z,8.30
2022-12-05T21:09:16.008Z,7.15
2022-12-05T21:11:43.034Z,6.95
2022-12-05T21:14:14.893Z,7.03
2022-12-05T21:16:43.906Z,6.50
2022-12-05T21:19:10.656Z,6.65
2022-12-05T21:21:38.145Z,6.10
2022-12-05T21:24:05.752Z,5.85
2022-12-05T21:26:34.622Z,6.25
2022-12-05T21:29:02.104Z,5.93
2022-12-05T21:31:31.289Z,5.55
2022-12-05T21:34:03.523Z,5.80
2022-12-05T21:36:32.794Z,6.60
2022-12-05T21:39:00.359Z,7.97
2022-12-05T21:41:27.060Z,7.75
2022-12-05T21:43:56.455Z,7.65
2022-12-05T21:46:26.579Z,6.95
2022-12-05T21:48:54.028Z,7.38
2022-12-05T21:51:22.192Z,7.38
2022-12-05T21:53:49.096Z,7.55
2022-12-05T21:56:18.415Z,7.50
2022-12-05T21:58:46.467Z,7.13
2022-12-05T22:01:35.072Z,7.03
2022-12-05T22:04:01.942Z,6.95
2022-12-05T22:06:34.029Z,6.72
2022-12-05T22:09:01.222Z,6.53
2022-12-05T22:11:27.818Z,6.03
2022-12-05T22:13:56.903Z,5.97
2022-12-05T22:16:27.768Z,6.78
2022-12-05T22:19:02.119Z,8.88
2022-12-05T22:21:28.997Z,7.45
2022-12-05T22:23:56.453Z,7.28
2022-12-05T22:26:26.597Z,6.28
2022-12-05T22:28:56.665Z,5.35
2022-12-05T22:31:24.268Z,4.93
2022-12-05T22:33:51.290Z,4.97
2022-12-05T22:36:19.493Z,4.90
2022-12-05T22:38:47.466Z,4.90
2022-12-05T22:41:20.378Z,4.97
2022-12-05T22:43:50.854Z,6.05
2022-12-05T22:46:20.133Z,6.13
2022-12-05T22:48:48.703Z,6.25
2022-12-05T22:51:16.012Z,5.70
2022-12-05T22:53:42.818Z,5.43
2022-12-05T22:56:15.734Z,5.60
2022-12-05T22:58:53.044Z,5.55
2022-12-05T23:01:23.962Z,5.25
2022-12-05T23:03:57.707Z,5.20
2022-12-05T23:06:24.920Z,5.43
2022-12-05T23:08:51.883Z,4.85
2022-12-05T23:11:20.688Z,6.07
2022-12-05T23:13:48.778Z,6.95
2022-12-05T23:16:26.115Z,7.05
2022-12-05T23:18:57.451Z,6.30
2022-12-05T23:21:30.695Z,5.50
2022-12-05T23:24:00.341Z,5.82
2022-12-05T23:26:30.419Z,5.25
2022-12-05T23:28:57.287Z,5.00
2022-12-05T23:31:25.249Z,4.88
2022-12-05T23:33:51.931Z,4.65
2022-12-05T23:36:19.586Z,4.70
2022-12-05T23:38:46.782Z,4.07
2022-12-05T23:41:15.375Z,5.10
2022-12-05T23:43:44.988Z,4.63
2022-12-05T23:46:13.093Z,5.03
2022-12-05T23:48:40.074Z,4.90
2022-12-05T23:51:15.775Z,4.50
2022-12-05T23:53:44.366Z,4.43
2022-12-05T23:56:12.069Z,4.78
2022-12-05T23:58:38.737Z,4.15
